Terminal Aerodrome Forecast
Issued by NWS

Home | Current Version | Previous Version | Graphics & Text | Print | Product List | Glossary On
Versions: 1 2 3 4 5 6 7 8 9 10 11 12 13 14 15 16 17 18
136
FTUS43 KIWX 190534
TAFSBN
TAF
KSBN 190534Z 1906/2006 09004KT P6SM SCT100 BKN250
     FM190800 08004KT 5SM SHRA BR VCTS BKN025CB OVC040
     FM191100 09004KT 2SM -SHRA BR OVC008
     FM191500 10004KT 5SM BR VCSH OVC015
     FM192000 14006KT P6SM BKN035
     FM200300 VRB03KT P6SM SCT035=

USA.gov is the U.S. government's official web portal to all federal, state and local government web resources and services.